Time;durP1;ratioP1;P1;durP2;ratioP2;P2;SDS_P1;SDS_P2;PMS_P1;PMS_P2;Temp;Humidity;BMP_temperature;BMP_pressure;BME280_temperature;BME280_humidity;BME280_pressure;Samples;Min_cycle;Max_cycle;Signal;HPM_P1;HPM_P2
2023/05/26 00:00:21;;;;;;;4.85;2.70;;;15.70;99.90;;;;;;5050795;28;20443;-71
2023/05/26 00:02:46;;;;;;;5.63;2.60;;;15.80;99.90;;;;;;5050902;28;20033;-73
2023/05/26 00:05:20;;;;;;;3.10;2.42;;;15.70;99.90;;;;;;5050321;28;20021;-71
2023/05/26 00:07:46;;;;;;;4.97;2.60;;;15.70;99.90;;;;;;5050610;28;20095;-72
2023/05/26 00:10:12;;;;;;;3.75;2.60;;;15.60;99.90;;;;;;5049889;28;20313;-71
2023/05/26 00:12:38;;;;;;;4.50;3.00;;;15.60;99.90;;;;;;5050385;28;20094;-71
2023/05/26 00:15:05;;;;;;;5.63;2.78;;;15.50;99.90;;;;;;5049822;28;20078;-72
2023/05/26 00:17:31;;;;;;;4.78;2.83;;;15.50;99.90;;;;;;5050494;28;20021;-72
2023/05/26 00:19:59;;;;;;;4.82;2.75;;;15.50;99.90;;;;;;5049872;28;20501;-72
2023/05/26 00:22:26;;;;;;;3.63;2.85;;;15.50;99.90;;;;;;5050522;28;20052;-71
2023/05/26 00:24:52;;;;;;;3.42;2.40;;;15.50;99.90;;;;;;5049530;28;20086;-72
2023/05/26 00:27:18;;;;;;;2.53;2.33;;;15.50;99.90;;;;;;5050632;28;20115;-72
2023/05/26 00:29:44;;;;;;;2.92;2.63;;;15.50;99.90;;;;;;5050448;28;20021;-71
2023/05/26 00:32:11;;;;;;;3.58;2.90;;;15.50;99.90;;;;;;5049418;28;20029;-72
2023/05/26 00:34:36;;;;;;;3.60;2.78;;;15.50;99.90;;;;;;5050517;28;20029;-72
2023/05/26 00:37:02;;;;;;;4.43;2.85;;;15.50;99.90;;;;;;5049738;28;20382;-71
2023/05/26 00:39:29;;;;;;;5.25;2.40;;;15.50;99.90;;;;;;5050367;28;20040;-72
2023/05/26 00:41:56;;;;;;;3.17;2.40;;;15.40;99.90;;;;;;5049543;28;20029;-72
2023/05/26 00:44:22;;;;;;;3.70;2.92;;;15.50;99.90;;;;;;5050050;28;20029;-72
2023/05/26 00:46:48;;;;;;;5.18;3.17;;;15.40;99.90;;;;;;5050150;28;20090;-72
2023/05/26 00:49:14;;;;;;;6.90;3.22;;;15.40;99.90;;;;;;5049601;28;20029;-72
2023/05/26 00:51:40;;;;;;;8.23;3.75;;;15.30;99.90;;;;;;5050030;28;20355;-72
2023/05/26 00:54:07;;;;;;;7.22;3.72;;;15.20;99.90;;;;;;5049718;28;20029;-72
2023/05/26 00:56:35;;;;;;;9.60;4.00;;;15.10;99.90;;;;;;5049984;28;20029;-72
2023/05/26 00:59:02;;;;;;;9.75;4.00;;;15.10;99.90;;;;;;5048074;28;20040;-72
2023/05/26 01:01:30;;;;;;;10.23;4.20;;;15.00;99.90;;;;;;5048744;28;20077;-72
2023/05/26 01:03:56;;;;;;;9.35;3.97;;;15.00;99.90;;;;;;5049559;28;20139;-71
2023/05/26 01:06:22;;;;;;;8.80;3.70;;;15.00;99.90;;;;;;5049971;28;20120;-72
2023/05/26 01:08:48;;;;;;;6.63;3.88;;;14.90;99.90;;;;;;5049924;28;20133;-71
2023/05/26 01:11:19;;;;;;;6.70;3.67;;;14.90;99.90;;;;;;5049287;28;20021;-71
2023/05/26 01:13:52;;;;;;;6.70;3.58;;;14.80;99.90;;;;;;5049772;28;20048;-71
2023/05/26 01:16:23;;;;;;;9.43;4.05;;;14.80;99.90;;;;;;5049512;28;20111;-71
2023/05/26 01:19:06;;;;;;;5.85;3.60;;;14.80;99.90;;;;;;5049852;28;20106;-71
2023/05/26 01:21:36;;;;;;;8.27;4.22;;;14.80;99.90;;;;;;5049958;28;20033;-72
2023/05/26 01:24:37;;;;;;;7.85;3.72;;;14.90;99.90;;;;;;5047507;28;20454;-72
2023/05/26 01:27:15;;;;;;;7.43;3.90;;;14.80;99.90;;;;;;5047747;28;20431;-72
2023/05/26 01:29:41;;;;;;;7.85;3.45;;;14.80;99.90;;;;;;5049772;28;20174;-72
2023/05/26 01:32:09;;;;;;;7.15;4.20;;;14.70;99.90;;;;;;5049134;28;20073;-72
2023/05/26 01:34:34;;;;;;;4.55;2.97;;;14.70;99.90;;;;;;5049921;28;20029;-71
2023/05/26 01:37:00;;;;;;;4.05;3.03;;;14.60;99.90;;;;;;5049193;28;20417;-72
2023/05/26 01:39:26;;;;;;;3.08;2.38;;;14.50;99.90;;;;;;5049648;28;20086;-72
2023/05/26 01:42:18;;;;;;;2.70;2.50;;;14.40;99.90;;;;;;5049369;28;20029;-71
2023/05/26 01:45:04;;;;;;;4.32;3.15;;;14.40;99.90;;;;;;5049779;28;20140;-71
2023/05/26 01:47:31;;;;;;;4.50;2.85;;;14.30;99.90;;;;;;5049640;28;20397;-72
2023/05/26 01:50:01;;;;;;;4.43;2.60;;;14.20;99.90;;;;;;5048952;28;20045;-72
2023/05/26 01:52:27;;;;;;;4.40;2.53;;;14.10;99.90;;;;;;5049496;28;20147;-71
2023/05/26 01:54:59;;;;;;;4.18;3.05;;;14.10;99.90;;;;;;5049752;28;20033;-72
2023/05/26 01:57:26;;;;;;;2.58;2.35;;;14.00;99.90;;;;;;5049508;28;20032;-73
2023/05/26 01:59:52;;;;;;;2.78;2.33;;;13.90;99.90;;;;;;5053221;28;20024;-72
2023/05/26 02:02:18;;;;;;;5.25;2.85;;;13.90;99.90;;;;;;5052489;28;20445;-72
2023/05/26 02:04:44;;;;;;;4.30;2.70;;;13.90;99.90;;;;;;5052993;28;20028;-72
2023/05/26 02:07:09;;;;;;;2.60;2.40;;;13.80;99.90;;;;;;5052756;28;20035;-72
2023/05/26 02:09:36;;;;;;;5.15;2.92;;;13.80;99.90;;;;;;5052836;28;20025;-72
2023/05/26 02:12:03;;;;;;;2.95;2.45;;;13.70;99.90;;;;;;5052322;28;20044;-72
2023/05/26 02:14:28;;;;;;;5.18;2.97;;;13.70;99.90;;;;;;5052894;28;20108;-72
2023/05/26 02:16:54;;;;;;;5.25;3.30;;;13.60;99.90;;;;;;5052601;28;20104;-72
2023/05/26 02:19:20;;;;;;;5.15;4.50;;;13.50;99.90;;;;;;5052156;28;20094;-72
2023/05/26 02:21:46;;;;;;;5.55;4.88;;;13.50;99.90;;;;;;5052429;28;20021;-71
2023/05/26 02:24:12;;;;;;;5.63;4.68;;;13.40;99.90;;;;;;5051996;28;20025;-72
2023/05/26 02:26:37;;;;;;;8.75;6.72;;;13.40;99.90;;;;;;5052766;28;20332;-72
2023/05/26 02:29:03;;;;;;;9.20;7.18;;;13.30;99.90;;;;;;5051761;28;20052;-72
2023/05/26 02:31:29;;;;;;;11.50;8.40;;;13.30;99.90;;;;;;5052549;28;20025;-72
2023/05/26 02:33:54;;;;;;;9.07;8.00;;;13.30;99.90;;;;;;5052577;28;20033;-72
2023/05/26 02:36:20;;;;;;;11.07;8.40;;;13.30;99.90;;;;;;5051808;28;20104;-72
2023/05/26 02:38:46;;;;;;;10.32;8.93;;;13.20;99.90;;;;;;5052577;28;20037;-72
2023/05/26 02:41:12;;;;;;;9.50;8.52;;;13.20;99.90;;;;;;5050015;28;20037;-72
2023/05/26 02:43:40;;;;;;;12.00;9.10;;;13.20;99.90;;;;;;5052195;28;20048;-72
2023/05/26 02:46:06;;;;;;;10.13;8.65;;;13.10;99.90;;;;;;5051830;28;20029;-72
2023/05/26 02:48:32;;;;;;;10.77;8.93;;;13.10;99.90;;;;;;5051741;28;20483;-72
2023/05/26 02:50:59;;;;;;;10.05;8.50;;;13.10;99.90;;;;;;5052507;28;20033;-74
2023/05/26 02:53:25;;;;;;;10.90;8.68;;;13.00;99.90;;;;;;5052413;28;20029;-72
2023/05/26 02:55:51;;;;;;;8.60;7.70;;;13.00;99.90;;;;;;5052460;28;20029;-72
2023/05/26 02:58:16;;;;;;;11.20;8.15;;;13.00;99.90;;;;;;5051705;28;20036;-72
2023/05/26 03:00:42;;;;;;;9.45;8.45;;;12.90;99.90;;;;;;5052201;28;20021;-72
2023/05/26 03:03:08;;;;;;;10.63;8.40;;;12.80;99.90;;;;;;5051807;28;20044;-72
2023/05/26 03:05:34;;;;;;;10.77;8.38;;;12.90;99.90;;;;;;5052530;28;20025;-72
2023/05/26 03:08:00;;;;;;;11.70;9.32;;;12.90;99.90;;;;;;5051657;28;20032;-75
2023/05/26 03:10:26;;;;;;;10.70;8.68;;;12.90;99.90;;;;;;5051738;28;20052;-73
2023/05/26 03:12:51;;;;;;;12.82;8.70;;;12.90;99.90;;;;;;5050597;28;20350;-72
2023/05/26 03:15:17;;;;;;;11.73;9.07;;;12.80;99.90;;;;;;5051157;28;20553;-72
2023/05/26 03:17:43;;;;;;;9.30;8.30;;;12.80;99.90;;;;;;5051382;28;20024;-72
2023/05/26 03:20:09;;;;;;;10.43;8.95;;;12.80;99.90;;;;;;5051210;28;20056;-73
2023/05/26 03:22:35;;;;;;;11.02;7.95;;;12.80;99.90;;;;;;5051663;28;20029;-72
2023/05/26 03:25:01;;;;;;;10.85;8.20;;;12.70;99.90;;;;;;5049782;28;20052;-75
2023/05/26 03:27:26;;;;;;;12.05;8.10;;;12.80;99.90;;;;;;5051092;28;20481;-73
2023/05/26 03:29:52;;;;;;;10.48;7.68;;;12.70;99.90;;;;;;5051781;28;20082;-72
2023/05/26 03:32:18;;;;;;;11.75;8.93;;;12.80;99.90;;;;;;5050607;28;20044;-72
2023/05/26 03:34:44;;;;;;;8.52;6.70;;;12.80;99.90;;;;;;5051458;28;20044;-72
2023/05/26 03:37:15;;;;;;;9.10;6.60;;;12.70;99.90;;;;;;5050783;28;20029;-72
2023/05/26 03:39:40;;;;;;;9.20;7.47;;;12.50;99.90;;;;;;5051431;28;20166;-72
2023/05/26 03:42:07;;;;;;;9.63;6.57;;;12.50;99.90;;;;;;5050834;28;20083;-73
2023/05/26 03:44:32;;;;;;;10.13;6.78;;;12.50;99.90;;;;;;5050996;28;20448;-72
2023/05/26 03:46:58;;;;;;;9.55;6.78;;;12.50;99.90;;;;;;5049726;28;20200;-72
2023/05/26 03:49:24;;;;;;;9.43;6.53;;;12.40;99.90;;;;;;5050672;28;20079;-72
2023/05/26 03:51:50;;;;;;;8.60;6.07;;;12.30;99.90;;;;;;5050913;28;20123;-72
2023/05/26 03:54:15;;;;;;;8.75;6.10;;;12.30;99.90;;;;;;5050896;28;20481;-72
2023/05/26 03:56:41;;;;;;;7.65;5.90;;;12.20;99.90;;;;;;5051203;28;20057;-72
2023/05/26 03:59:07;;;;;;;8.70;5.65;;;12.20;99.90;;;;;;5050373;28;20049;-72
2023/05/26 04:01:33;;;;;;;9.52;6.45;;;12.20;99.90;;;;;;5050687;28;20028;-73
2023/05/26 04:03:58;;;;;;;7.25;5.68;;;12.10;99.90;;;;;;5050932;28;20056;-73
2023/05/26 04:06:24;;;;;;;7.50;5.82;;;12.10;99.90;;;;;;5048807;28;20503;-73
2023/05/26 04:08:50;;;;;;;9.85;6.00;;;12.10;99.90;;;;;;5050762;28;20033;-72
2023/05/26 04:11:17;;;;;;;7.30;5.72;;;12.10;99.90;;;;;;5048658;28;20102;-72
2023/05/26 04:13:44;;;;;;;8.18;5.80;;;12.00;99.90;;;;;;5050181;28;20037;-73
2023/05/26 04:16:10;;;;;;;10.05;6.05;;;11.90;99.90;;;;;;5050100;28;20028;-73
2023/05/26 04:18:40;;;;;;;8.57;5.50;;;11.90;99.90;;;;;;5049085;28;20385;-72
2023/05/26 04:21:07;;;;;;;8.68;5.70;;;11.90;99.90;;;;;;5049381;28;20474;-74
2023/05/26 04:23:32;;;;;;;7.15;5.28;;;12.00;99.90;;;;;;5048757;28;20446;-72
2023/05/26 04:26:00;;;;;;;7.90;5.63;;;12.00;99.90;;;;;;5050586;28;20124;-72
2023/05/26 04:28:26;;;;;;;9.48;6.05;;;12.00;99.90;;;;;;5049551;28;20029;-73
2023/05/26 04:30:52;;;;;;;7.78;5.30;;;12.00;99.90;;;;;;5050274;28;20071;-72
2023/05/26 04:33:20;;;;;;;10.18;5.43;;;12.10;99.90;;;;;;5049802;28;20127;-72
2023/05/26 04:35:47;;;;;;;7.55;5.53;;;12.10;99.90;;;;;;5050348;28;20100;-72
2023/05/26 04:38:13;;;;;;;7.47;5.10;;;12.10;99.90;;;;;;5048474;28;20076;-72
2023/05/26 04:40:42;;;;;;;7.72;5.40;;;12.10;99.90;;;;;;5049991;28;20098;-72
2023/05/26 04:43:08;;;;;;;7.22;5.10;;;12.10;99.90;;;;;;5049398;28;20389;-73
2023/05/26 04:45:36;;;;;;;9.10;5.43;;;12.00;99.90;;;;;;5050084;28;20029;-73
2023/05/26 04:48:02;;;;;;;12.02;5.68;;;11.90;99.90;;;;;;5049858;28;20440;-72
2023/05/26 04:50:28;;;;;;;10.60;5.72;;;11.90;99.90;;;;;;5049708;28;20456;-70
2023/05/26 04:52:54;;;;;;;9.88;5.78;;;11.90;99.90;;;;;;5050374;28;20478;-72
2023/05/26 04:55:20;;;;;;;10.05;6.00;;;11.90;99.90;;;;;;5049852;28;20021;-72
2023/05/26 04:57:46;;;;;;;9.95;5.75;;;11.90;99.90;;;;;;5050102;28;20024;-72
2023/05/26 05:00:13;;;;;;;9.07;5.65;;;11.90;99.90;;;;;;5049583;28;20044;-72
2023/05/26 05:02:40;;;;;;;9.30;5.55;;;12.00;99.90;;;;;;5050215;28;20393;-73
2023/05/26 05:05:06;;;;;;;8.27;6.25;;;12.10;99.90;;;;;;5048695;28;20516;-73
2023/05/26 05:07:32;;;;;;;9.98;5.70;;;12.30;99.90;;;;;;5048330;28;20232;-72
2023/05/26 05:09:58;;;;;;;9.32;5.72;;;12.40;99.90;;;;;;5050044;28;20476;-72
2023/05/26 05:12:24;;;;;;;8.80;4.68;;;12.50;99.90;;;;;;5049284;28;20036;-73
2023/05/26 05:14:50;;;;;;;10.68;5.47;;;12.60;99.90;;;;;;5049715;28;20482;-73
2023/05/26 05:17:16;;;;;;;7.10;5.00;;;12.70;99.90;;;;;;5049512;28;20060;-72
2023/05/26 05:19:42;;;;;;;9.98;4.75;;;12.60;99.90;;;;;;5049814;28;20029;-71
2023/05/26 05:22:08;;;;;;;7.18;4.25;;;12.70;99.90;;;;;;5049540;28;20029;-73
2023/05/26 05:24:34;;;;;;;8.25;5.07;;;12.80;99.90;;;;;;5049661;28;20029;-71
2023/05/26 05:27:00;;;;;;;7.13;4.72;;;13.00;99.90;;;;;;5050076;28;20393;-71
2023/05/26 05:29:25;;;;;;;6.60;3.95;;;13.00;99.90;;;;;;5049393;28;20025;-72
2023/05/26 05:31:51;;;;;;;9.05;5.32;;;13.10;99.90;;;;;;5050453;28;20032;-71
2023/05/26 05:34:17;;;;;;;5.20;4.00;;;13.20;99.90;;;;;;5051417;28;20021;-72
2023/05/26 05:36:43;;;;;;;6.50;4.03;;;13.30;99.90;;;;;;5053509;28;20128;-72
2023/05/26 05:39:08;;;;;;;9.68;4.95;;;13.40;99.90;;;;;;5053604;28;20028;-73
2023/05/26 05:41:35;;;;;;;8.30;4.10;;;13.40;99.90;;;;;;5053196;28;20469;-72
2023/05/26 05:44:01;;;;;;;5.40;4.07;;;13.40;99.90;;;;;;5053179;28;20036;-72
2023/05/26 05:46:26;;;;;;;10.25;4.10;;;13.40;99.90;;;;;;5052381;28;20029;-72
2023/05/26 05:48:52;;;;;;;6.45;3.67;;;13.50;99.90;;;;;;5053632;28;20166;-72
2023/05/26 05:51:18;;;;;;;7.28;3.80;;;13.50;99.90;;;;;;5052906;28;20071;-72
2023/05/26 05:53:45;;;;;;;6.45;3.92;;;13.60;99.90;;;;;;5053501;28;20040;-72
2023/05/26 05:56:10;;;;;;;7.97;3.20;;;13.70;99.90;;;;;;5052361;28;20055;-74
2023/05/26 05:58:36;;;;;;;9.00;3.45;;;13.70;99.90;;;;;;5052142;28;20447;-72
2023/05/26 06:01:02;;;;;;;6.22;3.33;;;13.70;99.90;;;;;;5052831;28;20029;-72
2023/05/26 06:03:27;;;;;;;7.47;3.60;;;13.80;99.90;;;;;;5052173;28;20040;-71
2023/05/26 06:05:53;;;;;;;9.40;3.75;;;13.80;99.90;;;;;;5052809;28;20029;-71
2023/05/26 06:08:19;;;;;;;5.55;3.28;;;13.90;99.90;;;;;;5052175;28;20024;-71
2023/05/26 06:10:45;;;;;;;8.50;3.25;;;13.90;99.90;;;;;;5052761;28;20051;-72
2023/05/26 06:13:11;;;;;;;7.38;3.75;;;13.90;99.90;;;;;;5052525;28;20132;-74
2023/05/26 06:15:36;;;;;;;8.23;3.72;;;13.90;99.90;;;;;;5052337;28;20041;-72
2023/05/26 06:18:02;;;;;;;9.77;4.43;;;14.00;99.90;;;;;;5052116;28;20112;-72
2023/05/26 06:20:28;;;;;;;10.82;3.58;;;14.10;99.90;;;;;;5051688;28;20029;-72
2023/05/26 06:22:54;;;;;;;6.28;3.47;;;14.20;99.90;;;;;;5052409;28;20132;-71
2023/05/26 06:25:19;;;;;;;6.07;3.47;;;14.40;99.90;;;;;;5051625;28;20126;-72
2023/05/26 06:27:45;;;;;;;6.95;3.05;;;14.50;99.90;;;;;;5052309;28;20028;-71
2023/05/26 06:30:11;;;;;;;8.88;3.35;;;14.60;99.90;;;;;;5052185;28;20029;-71
2023/05/26 06:32:37;;;;;;;6.40;2.95;;;14.50;99.90;;;;;;5051619;28;20091;-72
2023/05/26 06:35:03;;;;;;;11.00;3.72;;;14.70;99.90;;;;;;5051025;28;20029;-70
2023/05/26 06:37:28;;;;;;;11.40;3.80;;;14.80;99.90;;;;;;5051421;28;20386;-71
2023/05/26 06:39:54;;;;;;;11.82;3.15;;;14.80;99.90;;;;;;5052566;28;20024;-71
2023/05/26 06:42:20;;;;;;;6.95;2.95;;;14.80;99.90;;;;;;5051597;28;20033;-71
2023/05/26 06:44:46;;;;;;;5.38;2.92;;;14.80;99.90;;;;;;5049699;28;20059;-71
2023/05/26 06:47:11;;;;;;;11.10;3.30;;;14.80;99.90;;;;;;5051804;28;20032;-71
2023/05/26 06:49:37;;;;;;;7.47;3.40;;;14.80;99.90;;;;;;5051182;28;20021;-71
2023/05/26 06:52:03;;;;;;;8.63;2.90;;;14.70;99.90;;;;;;5052217;28;20159;-70
2023/05/26 06:54:29;;;;;;;5.00;3.05;;;14.80;99.90;;;;;;5051591;28;20060;-71
2023/05/26 06:56:55;;;;;;;6.93;2.80;;;15.00;99.90;;;;;;5051758;28;20474;-71
2023/05/26 06:59:20;;;;;;;7.75;2.90;;;15.20;99.90;;;;;;5051211;28;20048;-71
2023/05/26 07:01:46;;;;;;;8.02;3.00;;;15.30;99.90;;;;;;5051805;28;20374;-71
2023/05/26 07:04:12;;;;;;;7.45;2.88;;;15.30;99.90;;;;;;5051490;28;20040;-71
2023/05/26 07:06:37;;;;;;;8.52;2.53;;;15.40;99.90;;;;;;5051253;28;20418;-71
2023/05/26 07:09:03;;;;;;;3.47;2.30;;;15.50;99.90;;;;;;5051445;28;20025;-71
2023/05/26 07:11:29;;;;;;;7.78;2.63;;;15.60;99.90;;;;;;5050693;28;20025;-71
2023/05/26 07:13:55;;;;;;;4.72;2.30;;;15.40;99.90;;;;;;5051460;28;20102;-71
2023/05/26 07:16:21;;;;;;;6.00;2.53;;;15.40;99.90;;;;;;5050252;28;20048;-71
2023/05/26 07:18:47;;;;;;;6.57;2.85;;;15.30;99.90;;;;;;5050210;28;20021;-71
2023/05/26 07:21:15;;;;;;;3.92;2.22;;;15.40;99.90;;;;;;5051306;28;20308;-71
2023/05/26 07:23:40;;;;;;;5.45;2.78;;;15.20;99.90;;;;;;5050474;28;20052;-71
2023/05/26 07:26:06;;;;;;;7.70;2.55;;;15.40;99.90;;;;;;5049321;28;20442;-71
2023/05/26 07:28:32;;;;;;;7.38;2.63;;;15.40;99.90;;;;;;5050201;28;20028;-71
2023/05/26 07:30:57;;;;;;;6.60;2.83;;;15.40;99.90;;;;;;5050977;28;20032;-71
2023/05/26 07:33:23;;;;;;;7.18;2.22;;;15.50;99.90;;;;;;5050560;28;20158;-72
2023/05/26 07:35:49;;;;;;;5.40;2.30;;;15.70;99.90;;;;;;5049240;28;20033;-70
2023/05/26 07:38:15;;;;;;;6.88;2.40;;;15.90;99.90;;;;;;5050883;28;20078;-71
2023/05/26 07:40:40;;;;;;;6.20;2.17;;;16.00;99.90;;;;;;5050207;28;20104;-71
2023/05/26 07:43:12;;;;;;;5.47;2.72;;;16.00;99.90;;;;;;5050631;28;20075;-71
2023/05/26 07:45:38;;;;;;;6.22;2.80;;;16.10;99.90;;;;;;5049114;28;20705;-71
2023/05/26 07:48:03;;;;;;;7.80;2.70;;;16.20;99.90;;;;;;5050839;28;20063;-71
2023/05/26 07:50:30;;;;;;;4.18;2.08;;;16.30;99.90;;;;;;5049185;28;20067;-71
2023/05/26 07:52:55;;;;;;;5.28;2.45;;;16.50;99.90;;;;;;5051080;28;20119;-71
2023/05/26 07:55:21;;;;;;;3.72;2.13;;;16.30;99.90;;;;;;5050149;28;20387;-72
2023/05/26 07:57:47;;;;;;;4.35;2.40;;;16.40;99.90;;;;;;5051505;28;20029;-71
2023/05/26 08:00:13;;;;;;;8.50;1.98;;;16.40;99.90;;;;;;5051524;28;20029;-71
2023/05/26 08:02:39;;;;;;;8.65;2.25;;;16.40;99.90;;;;;;5050720;28;20591;-71
2023/05/26 08:05:05;;;;;;;5.03;2.67;;;16.40;99.90;;;;;;5051580;28;20036;-70
2023/05/26 08:07:31;;;;;;;4.57;2.38;;;16.50;99.90;;;;;;5051167;28;20039;-72
2023/05/26 08:09:57;;;;;;;6.82;2.53;;;16.50;99.90;;;;;;5051536;28;20025;-72
2023/05/26 08:12:22;;;;;;;6.70;2.28;;;16.60;99.90;;;;;;5050650;28;20457;-72
2023/05/26 08:14:49;;;;;;;4.30;2.10;;;16.70;99.90;;;;;;5051313;28;20022;-72
2023/05/26 08:17:15;;;;;;;5.07;2.08;;;16.80;99.90;;;;;;5050823;28;20478;-74
2023/05/26 08:19:41;;;;;;;7.55;2.83;;;17.00;99.90;;;;;;5051226;28;20043;-72
2023/05/26 08:22:07;;;;;;;6.30;2.20;;;17.10;99.90;;;;;;5050733;28;20330;-72
2023/05/26 08:24:32;;;;;;;6.50;2.25;;;17.30;99.90;;;;;;5050924;28;20108;-72
2023/05/26 08:26:58;;;;;;;5.30;2.22;;;17.40;99.90;;;;;;5051028;28;20120;-72
2023/05/26 08:29:24;;;;;;;6.65;2.35;;;17.20;99.90;;;;;;5051165;28;20051;-72
2023/05/26 08:31:50;;;;;;;6.43;1.95;;;17.00;99.90;;;;;;5049606;28;20025;-72
2023/05/26 08:34:17;;;;;;;8.68;2.10;;;16.80;99.90;;;;;;5051062;28;20045;-72
2023/05/26 08:36:42;;;;;;;4.93;2.10;;;16.90;99.90;;;;;;5050533;28;20029;-72
2023/05/26 08:39:08;;;;;;;7.15;2.70;;;17.00;99.90;;;;;;5050614;28;20032;-71
2023/05/26 08:41:48;;;;;;;5.40;2.25;;;17.20;99.90;;;;;;5049709;28;20029;-72
2023/05/26 08:44:16;;;;;;;7.97;2.50;;;17.20;99.90;;;;;;5050498;28;20439;-71
2023/05/26 08:46:49;;;;;;;5.10;2.25;;;17.20;99.90;;;;;;5049875;28;20025;-72
2023/05/26 08:49:19;;;;;;;6.32;2.60;;;17.20;99.90;;;;;;5050539;28;20021;-72
2023/05/26 08:51:55;;;;;;;4.85;2.00;;;17.40;99.90;;;;;;5049885;28;20144;-71
2023/05/26 08:54:21;;;;;;;7.78;2.25;;;17.30;99.90;;;;;;5050401;28;20033;-72
2023/05/26 08:56:48;;;;;;;5.18;2.05;;;17.50;99.90;;;;;;5049985;28;20032;-71
2023/05/26 08:59:16;;;;;;;5.07;2.00;;;17.50;99.90;;;;;;5048681;28;20454;-71
2023/05/26 09:01:42;;;;;;;3.58;2.28;;;17.50;99.90;;;;;;5049310;28;20098;-71
2023/05/26 09:04:08;;;;;;;3.30;2.10;;;17.50;99.90;;;;;;5050039;28;20036;-72
2023/05/26 09:06:35;;;;;;;5.68;2.33;;;17.50;99.90;;;;;;5049422;28;20032;-72
2023/05/26 09:09:04;;;;;;;3.80;1.95;;;17.50;99.90;;;;;;5053863;28;20443;-72
2023/05/26 09:11:33;;;;;;;4.57;2.00;;;17.50;99.90;;;;;;5053137;28;20039;-73
2023/05/26 09:14:01;;;;;;;5.20;2.00;;;17.50;99.90;;;;;;5053925;28;20041;-73
2023/05/26 09:16:28;;;;;;;4.40;2.10;;;17.50;99.90;;;;;;5053496;28;20025;-74
2023/05/26 09:18:58;;;;;;;3.30;2.00;;;17.60;99.90;;;;;;5054155;28;20059;-73
2023/05/26 09:21:26;;;;;;;3.38;1.80;;;17.70;99.90;;;;;;5054132;28;20041;-76
2023/05/26 09:23:56;;;;;;;8.45;2.38;;;17.70;99.90;;;;;;5054484;28;20115;-74
2023/05/26 09:26:40;;;;;;;3.72;1.95;;;17.90;99.90;;;;;;5054126;28;20049;-73
2023/05/26 09:29:06;;;;;;;4.47;1.98;;;17.80;99.90;;;;;;5053883;28;20503;-72
2023/05/26 09:31:38;;;;;;;3.60;1.95;;;17.90;99.90;;;;;;5053271;28;20099;-73
2023/05/26 09:34:04;;;;;;;3.83;2.13;;;17.90;99.90;;;;;;5052464;28;20045;-72
2023/05/26 09:36:33;;;;;;;7.65;2.42;;;18.10;99.90;;;;;;5053261;28;20025;-73
2023/05/26 09:39:01;;;;;;;6.35;2.08;;;18.00;99.90;;;;;;5054507;28;20099;-72
2023/05/26 09:41:44;;;;;;;4.43;2.20;;;18.00;99.90;;;;;;5054282;28;20069;-74
2023/05/26 09:44:11;;;;;;;6.88;1.90;;;17.90;99.90;;;;;;5054568;28;20029;-72
2023/05/26 09:46:38;;;;;;;3.92;1.58;;;17.80;99.90;;;;;;5052537;28;20112;-73
2023/05/26 09:49:18;;;;;;;7.88;2.30;;;17.90;99.90;;;;;;5054430;28;20103;-73
2023/05/26 09:51:49;;;;;;;3.70;1.73;;;18.10;99.90;;;;;;5052330;28;20128;-73
2023/05/26 09:54:15;;;;;;;4.20;1.73;;;18.10;99.90;;;;;;5054206;28;20055;-73
2023/05/26 09:56:59;;;;;;;4.75;2.03;;;18.10;99.90;;;;;;5053474;28;20451;-73
2023/05/26 09:59:38;;;;;;;6.00;2.10;;;18.30;99.90;;;;;;5052870;28;20029;-74
2023/05/26 10:02:20;;;;;;;5.82;2.13;;;18.30;99.90;;;;;;5053877;28;20033;-73
2023/05/26 10:04:50;;;;;;;4.50;1.43;;;18.30;99.90;;;;;;5053469;28;20132;-73
2023/05/26 10:07:18;;;;;;;6.30;2.38;;;18.50;99.90;;;;;;5054302;28;20306;-73
2023/05/26 10:09:50;;;;;;;6.03;2.42;;;18.40;99.90;;;;;;5054138;28;20227;-73
2023/05/26 10:12:19;;;;;;;3.07;1.80;;;18.30;99.90;;;;;;5054720;28;20029;-73
2023/05/26 10:14:46;;;;;;;6.07;2.40;;;18.50;99.90;;;;;;5053930;28;20031;-74
2023/05/26 10:17:12;;;;;;;4.45;1.58;;;18.40;99.90;;;;;;5053996;28;20094;-72
2023/05/26 10:19:37;;;;;;;6.38;1.70;;;18.30;99.90;;;;;;5049727;28;20033;-71
2023/05/26 10:22:10;;;;;;;3.70;1.88;;;18.30;99.90;;;;;;5052895;28;20520;-72
2023/05/26 10:24:44;;;;;;;5.60;1.63;;;18.30;99.90;;;;;;5052014;28;20109;-73
2023/05/26 10:27:31;;;;;;;3.67;1.65;;;18.40;99.90;;;;;;5052999;28;20037;-73
2023/05/26 10:30:08;;;;;;;2.15;1.33;;;18.60;99.90;;;;;;5053073;28;20017;-73
2023/05/26 10:32:55;;;;;;;6.00;1.60;;;18.40;99.90;;;;;;5051954;28;20033;-71
2023/05/26 10:35:24;;;;;;;5.63;1.75;;;18.40;99.90;;;;;;5052778;28;20102;-72
2023/05/26 10:38:02;;;;;;;3.45;1.50;;;18.50;99.90;;;;;;5051350;28;20736;-72
2023/05/26 10:40:37;;;;;;;5.68;1.95;;;18.50;99.90;;;;;;5053032;28;20029;-73
2023/05/26 10:43:28;;;;;;;8.07;2.33;;;18.50;99.90;;;;;;5051909;28;20440;-72
2023/05/26 10:46:01;;;;;;;5.85;2.38;;;18.60;99.90;;;;;;5051700;28;20131;-73
2023/05/26 10:48:40;;;;;;;4.75;1.90;;;18.70;99.90;;;;;;5051985;28;20032;-73
2023/05/26 10:51:23;;;;;;;8.77;2.33;;;18.90;99.90;;;;;;5051484;28;20036;-72
2023/05/26 10:53:51;;;;;;;6.20;1.95;;;18.80;99.90;;;;;;5050960;28;20141;-72
2023/05/26 10:56:18;;;;;;;3.88;2.00;;;18.70;99.90;;;;;;5051592;28;20033;-72
2023/05/26 10:58:48;;;;;;;4.40;1.95;;;18.70;99.90;;;;;;5050622;28;20056;-72
2023/05/26 11:01:35;;;;;;;4.32;1.77;;;18.50;99.90;;;;;;5051681;28;20458;-72
2023/05/26 11:04:09;;;;;;;4.55;1.63;;;18.50;99.90;;;;;;5049587;28;20492;-72
2023/05/26 11:06:45;;;;;;;5.30;1.70;;;18.40;99.90;;;;;;5050686;28;20435;-73
2023/05/26 11:09:11;;;;;;;4.25;2.00;;;18.30;99.90;;;;;;5050965;28;20112;-72
2023/05/26 11:11:52;;;;;;;4.85;1.77;;;18.20;99.90;;;;;;5050465;28;20126;-72
2023/05/26 11:14:27;;;;;;;6.32;1.70;;;18.10;99.90;;;;;;5051091;28;20064;-72
2023/05/26 11:16:58;;;;;;;10.48;2.72;;;18.40;99.90;;;;;;5050960;28;20055;-72
2023/05/26 11:19:42;;;;;;;6.18;1.98;;;18.50;99.90;;;;;;5051139;28;20094;-72
2023/05/26 11:22:09;;;;;;;4.82;2.35;;;18.60;99.90;;;;;;5051091;28;20047;-72
2023/05/26 11:24:36;;;;;;;5.50;2.50;;;18.50;99.90;;;;;;5050485;28;20028;-73
2023/05/26 11:27:03;;;;;;;6.30;1.88;;;18.50;99.90;;;;;;5051326;28;20483;-72
2023/05/26 11:29:30;;;;;;;6.93;1.98;;;18.50;99.90;;;;;;5050994;28;20493;-72
2023/05/26 11:31:56;;;;;;;5.18;1.98;;;18.70;99.90;;;;;;5050583;28;20021;-72
2023/05/26 11:34:24;;;;;;;7.30;1.50;;;18.70;99.90;;;;;;5050475;28;20055;-72
2023/05/26 11:36:53;;;;;;;4.97;1.65;;;18.60;99.90;;;;;;5050606;28;20059;-72
2023/05/26 11:39:21;;;;;;;4.60;1.65;;;18.60;99.90;;;;;;5050783;28;20029;-73
2023/05/26 11:41:47;;;;;;;4.95;1.50;;;18.60;99.90;;;;;;5050459;28;20033;-72
2023/05/26 11:44:15;;;;;;;4.97;1.88;;;18.60;99.90;;;;;;5051458;28;20048;-72
2023/05/26 11:46:42;;;;;;;4.30;1.73;;;18.60;99.90;;;;;;5050166;28;20374;-73
2023/05/26 11:49:18;;;;;;;4.82;1.83;;;18.70;99.90;;;;;;5050826;28;20088;-72
2023/05/26 11:51:48;;;;;;;4.95;1.85;;;18.80;99.90;;;;;;5050006;28;20036;-72
2023/05/26 11:54:15;;;;;;;5.72;1.58;;;19.00;99.90;;;;;;5050786;28;20033;-72
2023/05/26 11:56:42;;;;;;;5.40;1.70;;;19.00;99.90;;;;;;5050478;28;20431;-73
2023/05/26 11:59:07;;;;;;;4.30;1.55;;;19.00;99.90;;;;;;5051450;28;20035;-72
2023/05/26 12:01:33;;;;;;;3.97;1.58;;;19.00;99.90;;;;;;5050799;28;20025;-72
2023/05/26 12:04:00;;;;;;;2.38;1.10;;;18.90;99.90;;;;;;5049229;28;20419;-72
2023/05/26 12:06:30;;;;;;;2.78;1.40;;;19.00;99.90;;;;;;5050733;28;20103;-72
2023/05/26 12:09:00;;;;;;;7.50;2.33;;;19.10;99.90;;;;;;5050091;28;20260;-72
2023/05/26 12:11:28;;;;;;;7.88;2.40;;;19.20;99.90;;;;;;5050358;28;20025;-72
2023/05/26 12:14:00;;;;;;;6.85;2.38;;;19.20;99.90;;;;;;5049490;28;20139;-72
2023/05/26 12:16:35;;;;;;;8.98;3.20;;;19.00;99.90;;;;;;5050203;28;20584;-72
2023/05/26 12:19:04;;;;;;;11.85;3.40;;;19.10;99.90;;;;;;5049753;28;20057;-72
2023/05/26 12:21:31;;;;;;;11.35;3.15;;;19.00;99.90;;;;;;5049897;28;20117;-72
2023/05/26 12:23:58;;;;;;;11.23;3.15;;;19.10;99.90;;;;;;5049373;28;20641;-73
2023/05/26 12:26:27;;;;;;;10.68;2.88;;;19.20;99.90;;;;;;5050316;28;20449;-73
2023/05/26 12:29:13;;;;;;;15.27;3.42;;;19.30;99.90;;;;;;5049286;28;20040;-73
2023/05/26 12:31:39;;;;;;;9.52;3.00;;;19.20;99.90;;;;;;5049633;28;20074;-73
2023/05/26 12:34:05;;;;;;;9.45;3.10;;;19.30;99.90;;;;;;5049436;28;20041;-73
2023/05/26 12:36:31;;;;;;;8.90;2.97;;;19.20;99.90;;;;;;5049661;28;20021;-72
2023/05/26 12:38:56;;;;;;;13.43;3.25;;;19.40;99.90;;;;;;5049387;28;20032;-73
2023/05/26 12:41:22;;;;;;;15.23;3.70;;;19.60;99.90;;;;;;5049348;28;20025;-73
2023/05/26 12:43:48;;;;;;;7.72;2.70;;;19.90;99.90;;;;;;5047976;28;20060;-73
2023/05/26 12:46:14;;;;;;;10.10;3.25;;;19.90;99.90;;;;;;5049938;28;20126;-73
2023/05/26 12:48:40;;;;;;;11.82;3.10;;;20.00;99.90;;;;;;5049258;28;20053;-74